Time;durP1;ratioP1;P1;durP2;ratioP2;P2;SDS_P1;SDS_P2;PMS_P1;PMS_P2;Temp;Humidity;BMP_temperature;BMP_pressure;BME280_temperature;BME280_humidity;BME280_pressure;Samples;Min_cycle;Max_cycle;Signal;HPM_P1;HPM_P2
2023/04/15 00:00:27;;;;;;;7.22;3.08;;;;;;;-142.75;100.00;77030.94;5011466;28;20432;-70
2023/04/15 00:02:53;;;;;;;5.40;3.08;;;;;;;-142.75;100.00;77032.91;5015089;28;20101;-70
2023/04/15 00:05:18;;;;;;;6.70;3.13;;;;;;;-142.75;100.00;77044.72;5014855;28;20113;-70
2023/04/15 00:07:46;;;;;;;7.53;3.03;;;;;;;-142.75;100.00;77050.63;5014663;28;20036;-70
2023/04/15 00:10:11;;;;;;;5.33;2.73;;;;;;;-142.75;100.00;77030.94;5015027;28;20025;-70
2023/04/15 00:12:36;;;;;;;5.20;3.20;;;;;;;-142.75;100.00;77070.31;5014790;28;20091;-69
2023/04/15 00:15:02;;;;;;;8.73;2.90;;;;;;;-142.75;100.00;77056.53;5013636;28;20035;-70
2023/04/15 00:17:28;;;;;;;7.07;2.73;;;;;;;-142.75;100.00;77058.50;5014691;28;20026;-70
2023/04/15 00:19:54;;;;;;;7.93;2.65;;;;;;;-142.75;100.00;77082.13;5013638;28;20468;-69
2023/04/15 00:22:19;;;;;;;8.07;3.07;;;;;;;-142.75;100.00;77066.38;5014759;28;20022;-70
2023/04/15 00:24:44;;;;;;;;;;;;;;;-142.75;100.00;77060.47;5015088;28;20057;-69
2023/04/15 00:27:10;;;;;;;8.73;2.87;;;;;;;-142.75;100.00;77064.41;5014377;28;20019;-70
2023/04/15 00:29:36;;;;;;;10.67;3.30;;;;;;;-142.75;100.00;77066.38;5014529;28;20053;-70
2023/04/15 00:32:01;;;;;;;5.07;2.77;;;;;;;-142.75;100.00;77076.22;5014585;28;20108;-70
2023/04/15 00:34:27;;;;;;;9.13;3.03;;;;;;;-142.75;100.00;77068.34;5012987;28;20030;-69
2023/04/15 00:36:53;;;;;;;11.43;3.27;;;;;;;-142.75;100.00;77058.50;5012998;28;20026;-70
2023/04/15 00:39:18;;;;;;;7.63;3.50;;;;;;;-142.75;100.00;77086.06;5014462;28;20033;-70
2023/04/15 00:41:46;;;;;;;9.17;3.33;;;;;;;-142.75;100.00;77088.03;5013193;28;20088;-70
2023/04/15 00:44:11;;;;;;;8.33;3.13;;;;;;;-142.75;100.00;77103.78;5014232;28;20470;-70
2023/04/15 00:46:38;;;;;;;7.13;2.83;;;;;;;-142.75;100.00;77088.03;5012907;28;20092;-69
2023/04/15 00:49:05;;;;;;;7.93;3.60;;;;;;;-142.75;100.00;77095.91;5012801;28;20029;-70
2023/04/15 00:51:32;;;;;;;6.80;3.30;;;;;;;-142.75;100.00;77101.81;5012796;28;20027;-70
2023/04/15 00:53:58;;;;;;;6.93;3.17;;;;;;;-142.75;100.00;77105.75;5014071;28;20026;-70
2023/04/15 00:56:25;;;;;;;6.43;3.23;;;;;;;-142.75;100.00;77111.66;5014185;28;20079;-69
2023/04/15 00:58:51;;;;;;;8.20;3.37;;;;;;;-142.75;100.00;77115.59;5012611;28;20030;-70
2023/04/15 01:01:21;;;;;;;9.67;3.70;;;;;;;-142.75;100.00;77121.50;5014147;28;20087;-70
2023/04/15 01:03:50;;;;;;;6.77;3.87;;;;;;;-142.75;100.00;77158.91;5014556;28;20159;-70
2023/04/15 01:06:16;;;;;;;8.30;3.97;;;;;;;-142.75;100.00;77154.97;5014000;28;20022;-70
2023/04/15 01:08:43;;;;;;;7.60;3.73;;;;;;;-142.75;100.00;77174.66;5013689;28;20543;-70
2023/04/15 01:11:11;;;;;;;11.23;3.87;;;;;;;-142.75;100.00;77168.75;5012501;28;20026;-70
2023/04/15 01:13:37;;;;;;;5.80;3.37;;;;;;;-142.75;100.00;77180.56;5013807;28;20426;-70
2023/04/15 01:16:02;;;;;;;9.63;3.73;;;;;;;-142.75;100.00;77186.47;5013792;28;20080;-70
2023/04/15 01:18:29;;;;;;;9.43;3.83;;;;;;;-142.75;100.00;77178.59;5013389;28;20030;-70
2023/04/15 01:20:54;;;;;;;8.90;3.87;;;;;;;-142.75;100.00;77202.22;5013620;28;20503;-70
2023/04/15 01:23:23;;;;;;;8.53;3.70;;;;;;;-142.75;100.00;77204.19;5012109;28;20014;-70
2023/04/15 01:25:49;;;;;;;9.10;3.97;;;;;;;-142.75;100.00;77202.22;5013512;28;20037;-70
2023/04/15 01:28:15;;;;;;;7.40;3.80;;;;;;;-142.75;100.00;77200.25;5012026;28;20038;-70
2023/04/15 01:30:40;;;;;;;8.40;4.00;;;;;;;-142.75;100.00;77219.94;5013444;28;20108;-70
2023/04/15 01:33:06;;;;;;;7.80;3.83;;;;;;;-142.75;100.00;77233.72;5013296;28;20033;-70
2023/04/15 01:35:31;;;;;;;11.13;4.27;;;;;;;-142.75;100.00;77229.78;5013395;28;20053;-70
2023/04/15 01:38:05;;;;;;;5.20;3.23;;;;;;;-142.75;100.00;77223.88;5013050;28;20030;-71
2023/04/15 01:40:30;;;;;;;5.93;4.10;;;;;;;-142.75;100.00;77233.72;5012949;28;20030;-70
2023/04/15 01:42:55;;;;;;;6.40;4.20;;;;;;;-142.75;100.00;77235.69;5013131;28;20022;-70
2023/04/15 01:45:21;;;;;;;9.23;4.43;;;;;;;-142.75;100.00;77227.81;5013189;28;20091;-70
2023/04/15 01:47:46;;;;;;;6.40;4.20;;;;;;;-142.75;100.00;77227.81;5011622;28;20029;-70
2023/04/15 01:50:11;;;;;;;13.77;3.83;;;;;;;-142.75;100.00;77221.91;5013055;28;20034;-70
2023/04/15 01:52:37;;;;;;;8.70;4.87;;;;;;;-142.75;100.00;77233.72;5011578;28;20036;-70
2023/04/15 01:55:03;;;;;;;8.20;4.53;;;;;;;-142.75;100.00;77237.66;5011667;28;20052;-70
2023/04/15 01:57:28;;;;;;;7.37;4.00;;;;;;;-142.75;100.00;77235.69;5012772;28;20080;-70
2023/04/15 01:59:53;;;;;;;7.07;4.53;;;;;;;-142.75;100.00;77249.47;5012735;28;20026;-70
2023/04/15 02:02:19;;;;;;;;;;;;;;;-142.75;100.00;77235.69;5013162;28;20102;-70
2023/04/15 02:04:44;;;;;;;10.53;4.07;;;;;;;-142.75;100.00;77243.56;5027814;28;19913;-70
2023/04/15 02:07:09;;;;;;;9.00;4.13;;;;;;;-142.75;100.00;77277.03;5012593;28;20097;-70
2023/04/15 02:09:35;;;;;;;7.50;4.07;;;;;;;-142.75;100.00;77302.63;5011302;28;20517;-70
2023/04/15 02:12:00;;;;;;;6.30;4.07;;;;;;;-142.75;100.00;77310.50;5012503;28;20110;-70
2023/04/15 02:14:25;;;;;;;11.13;4.70;;;;;;;-142.75;100.00;77304.59;5012548;28;20432;-70
2023/04/15 02:16:51;;;;;;;8.30;5.03;;;;;;;-142.75;100.00;77306.56;5012472;28;20080;-70
2023/04/15 02:19:16;;;;;;;8.10;4.53;;;;;;;-142.75;100.00;77302.63;5012365;28;20029;-70
2023/04/15 02:21:41;;;;;;;6.97;4.10;;;;;;;-142.75;100.00;77306.56;5012578;28;20026;-70
2023/04/15 02:24:07;;;;;;;9.37;4.33;;;;;;;-142.75;100.00;77298.69;5011977;28;20022;-70
2023/04/15 02:26:32;;;;;;;10.07;4.70;;;;;;;-142.75;100.00;77294.75;5012221;28;20048;-70
2023/04/15 02:28:58;;;;;;;11.03;5.87;;;;;;;-142.75;100.00;77292.78;5011128;28;20022;-71
2023/04/15 02:31:24;;;;;;;9.77;3.97;;;;;;;-142.75;100.00;77279.00;5012560;28;20030;-71
2023/04/15 02:33:50;;;;;;;7.50;4.43;;;;;;;-142.75;100.00;77267.19;5012366;28;20600;-70
2023/04/15 02:36:15;;;;;;;10.63;4.97;;;;;;;-142.75;100.00;77284.91;5012352;28;20071;-70
2023/04/15 02:38:41;;;;;;;8.73;4.87;;;;;;;-142.75;100.00;77279.00;5012035;28;20025;-70
2023/04/15 02:41:10;;;;;;;8.87;4.73;;;;;;;-142.75;100.00;77282.94;5012284;28;20041;-70
2023/04/15 02:43:36;;;;;;;10.20;4.87;;;;;;;-142.75;100.00;77279.00;5012021;28;20033;-70
2023/04/15 02:46:02;;;;;;;11.80;4.90;;;;;;;-142.75;100.00;77286.88;5012347;28;20030;-70
2023/04/15 02:48:28;;;;;;;9.50;4.57;;;;;;;-142.75;100.00;77310.50;5012322;28;20040;-70
2023/04/15 02:50:53;;;;;;;;;;;;;;;-142.75;100.00;77302.63;5012677;28;20404;-70
2023/04/15 02:53:18;;;;;;;6.80;3.93;;;;;;;-142.75;100.00;77290.81;5010911;28;19964;-72
2023/04/15 02:55:44;;;;;;;;;;;;;;;-142.75;100.00;77306.56;5012606;28;20034;-70
2023/04/15 02:58:09;;;;;;;7.37;4.70;;;;;;;-142.75;100.00;77304.59;5011918;28;19909;-70
2023/04/15 03:00:35;;;;;;;8.73;5.07;;;;;;;-142.75;100.00;77322.31;5012139;28;20112;-70
2023/04/15 03:03:02;;;;;;;11.13;5.13;;;;;;;-142.75;100.00;77312.47;5011930;28;20026;-70
2023/04/15 03:05:28;;;;;;;7.60;4.93;;;;;;;-142.75;100.00;77314.44;5011931;28;20026;-70
2023/04/15 03:07:54;;;;;;;11.60;5.40;;;;;;;-142.75;100.00;77302.63;5011673;28;20079;-70
2023/04/15 03:10:20;;;;;;;7.17;4.30;;;;;;;-142.75;100.00;77310.50;5010363;28;20493;-70
2023/04/15 03:12:45;;;;;;;6.47;4.73;;;;;;;-142.75;100.00;77296.72;5011733;28;20029;-70
2023/04/15 03:15:11;;;;;;;8.90;5.30;;;;;;;-142.75;100.00;77310.50;5011759;28;20501;-70
2023/04/15 03:17:36;;;;;;;9.63;4.97;;;;;;;-142.75;100.00;77310.50;5011645;28;20033;-70
2023/04/15 03:20:03;;;;;;;;;;;;;;;-142.75;100.00;77302.63;5012176;28;20099;-70
2023/04/15 03:22:29;;;;;;;7.90;5.13;;;;;;;-142.75;100.00;77300.66;5010531;28;19913;-70
2023/04/15 03:24:55;;;;;;;10.57;4.70;;;;;;;-142.75;100.00;77310.50;5011722;28;20030;-70
2023/04/15 03:27:21;;;;;;;11.20;5.10;;;;;;;-142.75;100.00;77334.13;5011442;28;20030;-70
2023/04/15 03:29:46;;;;;;;10.10;5.10;;;;;;;-142.75;100.00;77336.09;5011640;28;20486;-70
2023/04/15 03:32:11;;;;;;;9.80;4.87;;;;;;;-142.75;100.00;77334.13;5011690;28;20040;-70
2023/04/15 03:34:37;;;;;;;8.83;5.17;;;;;;;-142.75;100.00;77349.88;5011656;28;20108;-70
2023/04/15 03:37:02;;;;;;;7.20;4.53;;;;;;;-142.75;100.00;77361.69;5012843;28;20473;-70
2023/04/15 03:39:27;;;;;;;8.13;4.67;;;;;;;-142.75;100.00;77383.34;5015660;28;20056;-70
2023/04/15 03:41:52;;;;;;;7.70;4.43;;;;;;;-142.75;100.00;77389.25;5015613;28;20069;-70
2023/04/15 03:44:18;;;;;;;;;;;;;;;-142.75;100.00;77405.00;5015924;28;20036;-70
2023/04/15 03:46:43;;;;;;;9.47;4.17;;;;;;;-142.75;100.00;77410.91;5015421;28;20405;-70
2023/04/15 03:49:08;;;;;;;;;;;;;;;-142.75;100.00;77420.75;5015652;28;20025;-70
2023/04/15 03:51:34;;;;;;;9.50;4.73;;;;;;;-142.75;100.00;77426.66;5013915;28;19917;-70
2023/04/15 03:54:00;;;;;;;9.23;5.00;;;;;;;-142.75;100.00;77430.59;5013811;28;20052;-70
2023/04/15 03:56:26;;;;;;;10.07;5.13;;;;;;;-142.75;100.00;77426.66;5015334;28;20060;-70
2023/04/15 03:58:51;;;;;;;9.97;4.97;;;;;;;-142.75;100.00;77432.56;5015051;28;20450;-70
2023/04/15 04:01:17;;;;;;;7.73;4.73;;;;;;;-142.75;100.00;77440.44;5015229;28;20593;-70
2023/04/15 04:03:43;;;;;;;9.90;4.97;;;;;;;-142.75;100.00;77446.34;5015114;28;20036;-70
2023/04/15 04:06:09;;;;;;;9.27;5.07;;;;;;;-142.75;100.00;77436.50;5010546;28;20105;-70
2023/04/15 04:08:34;;;;;;;10.67;5.30;;;;;;;-142.75;100.00;77430.59;5006020;28;20017;-70
2023/04/15 04:11:00;;;;;;;10.67;4.87;;;;;;;-142.75;100.00;77438.47;5004975;28;20045;-70
2023/04/15 04:13:25;;;;;;;11.97;5.07;;;;;;;-142.75;100.00;77432.56;4993222;28;20034;-70
2023/04/15 04:15:50;;;;;;;9.17;5.70;;;;;;;-142.75;100.00;77424.69;4993568;28;20030;-70
2023/04/15 04:18:16;;;;;;;9.57;5.03;;;;;;;-142.75;100.00;77420.75;4994286;28;20026;-70
2023/04/15 04:20:41;;;;;;;11.70;5.67;;;;;;;-142.75;100.00;77418.78;4994820;28;20090;-70
2023/04/15 04:23:06;;;;;;;12.23;5.40;;;;;;;-142.75;100.00;77432.56;4995054;28;20105;-70
2023/04/15 04:25:32;;;;;;;11.37;5.50;;;;;;;-142.75;100.00;77440.44;4995025;28;20105;-70
2023/04/15 04:27:57;;;;;;;;;;;;;;;-142.75;100.00;77418.78;4994015;28;20026;-70
2023/04/15 04:30:22;;;;;;;9.73;5.13;;;;;;;-142.75;100.00;77440.44;4995066;28;19944;-70
2023/04/15 04:32:48;;;;;;;;;;;;;;;-142.75;100.00;77440.44;4995337;28;20094;-70
2023/04/15 04:35:14;;;;;;;8.20;4.70;;;;;;;-142.75;100.00;77464.09;4994747;28;19956;-70
2023/04/15 04:37:40;;;;;;;9.37;4.77;;;;;;;-142.75;100.00;77473.94;4994777;28;20022;-70
2023/04/15 04:40:06;;;;;;;9.50;4.57;;;;;;;-142.75;100.00;77464.09;4994988;28;20085;-70
2023/04/15 04:42:32;;;;;;;8.60;4.80;;;;;;;-142.75;100.00;77462.13;4994919;28;20026;-70
2023/04/15 04:44:57;;;;;;;12.80;5.03;;;;;;;-142.75;100.00;77473.94;4994759;28;20040;-70
2023/04/15 04:47:23;;;;;;;8.53;4.80;;;;;;;-142.75;100.00;77470.00;4994091;28;20410;-70
2023/04/15 04:49:48;;;;;;;8.60;4.97;;;;;;;-142.75;100.00;77479.84;4994755;28;20494;-70
2023/04/15 04:52:13;;;;;;;7.73;5.03;;;;;;;-142.75;100.00;77487.72;4994621;28;20474;-70
2023/04/15 04:54:39;;;;;;;;;;;;;;;-142.75;100.00;77495.59;4993752;28;20113;-70
2023/04/15 04:57:04;;;;;;;8.10;4.67;;;;;;;-142.75;100.00;77509.38;4993186;28;20366;-70
2023/04/15 04:59:29;;;;;;;8.03;4.83;;;;;;;-142.75;100.00;77515.28;4993304;28;20038;-70
2023/04/15 05:01:55;;;;;;;;;;;;;;;-142.75;100.00;77507.41;4994986;28;20105;-70
2023/04/15 05:04:20;;;;;;;12.90;4.73;;;;;;;-142.75;100.00;77534.97;4993126;28;19948;-70
2023/04/15 05:06:45;;;;;;;;;;;;;;;-142.75;100.00;77527.09;4994645;28;20030;-70
2023/04/15 05:09:11;;;;;;;11.47;4.70;;;;;;;-142.75;100.00;77544.81;4992816;28;19909;-70
2023/04/15 05:11:36;;;;;;;6.90;4.87;;;;;;;-142.75;100.00;77533.00;4994082;28;20062;-70
2023/04/15 05:14:01;;;;;;;10.80;5.37;;;;;;;-142.75;100.00;77536.94;4994201;28;20105;-70
2023/04/15 05:16:27;;;;;;;;;;;;;;;-142.75;100.00;77548.75;4994511;28;20025;-70
2023/04/15 05:18:52;;;;;;;7.37;4.60;;;;;;;-142.75;100.00;77540.88;4993828;28;20377;-70
2023/04/15 05:21:18;;;;;;;8.47;4.43;;;;;;;-142.75;100.00;77538.91;4994143;28;20030;-70
2023/04/15 05:23:43;;;;;;;9.53;4.63;;;;;;;-142.75;100.00;77546.78;5011679;28;20030;-70
2023/04/15 05:26:08;;;;;;;10.37;4.60;;;;;;;-142.75;100.00;77552.69;5012369;28;20033;-70
2023/04/15 05:28:34;;;;;;;10.13;4.63;;;;;;;-142.75;100.00;77550.72;5013230;28;20040;-70
2023/04/15 05:31:00;;;;;;;7.67;4.37;;;;;;;-142.75;100.00;77534.97;5013437;28;20026;-70
2023/04/15 05:33:26;;;;;;;9.50;4.47;;;;;;;-142.75;100.00;77529.06;5013231;28;20061;-70
2023/04/15 05:35:51;;;;;;;7.83;4.63;;;;;;;-142.75;100.00;77523.16;5013504;28;20030;-70
2023/04/15 05:38:17;;;;;;;7.50;4.53;;;;;;;-142.75;100.00;77505.44;5013220;28;20034;-70
2023/04/15 05:40:42;;;;;;;10.37;5.30;;;;;;;-142.75;100.00;77479.84;5013363;28;20060;-70
2023/04/15 05:43:07;;;;;;;10.87;4.93;;;;;;;-142.75;100.00;77466.03;5013129;28;20029;-70
2023/04/15 05:45:33;;;;;;;9.13;5.10;;;;;;;-142.75;100.00;77428.63;5012697;28;20032;-70
2023/04/15 05:47:58;;;;;;;;;;;;;;;-142.75;100.00;77401.06;5012688;28;20472;-70
2023/04/15 05:50:23;;;;;;;7.47;4.60;;;;;;;-142.75;100.00;77401.06;5012507;28;20391;-70
2023/04/15 05:52:49;;;;;;;;;;;;;;;-142.75;100.00;77389.25;5012907;28;20026;-70
2023/04/15 05:55:14;;;;;;;8.80;5.43;;;;;;;-142.75;100.00;77375.47;5011211;28;19963;-70
2023/04/15 05:57:39;;;;;;;7.43;5.07;;;;;;;-142.75;100.00;77367.59;5012099;28;20029;-70
2023/04/15 06:00:05;;;;;;;6.90;5.07;;;;;;;-142.75;100.00;77357.75;5010311;28;20611;-70
2023/04/15 06:02:31;;;;;;;9.77;5.00;;;;;;;-142.75;100.00;77332.16;5012425;28;20093;-69
2023/04/15 06:04:56;;;;;;;9.53;5.43;;;;;;;-142.75;100.00;77322.31;5011076;28;20397;-70
2023/04/15 06:07:22;;;;;;;10.40;5.40;;;;;;;-142.75;100.00;77322.31;5010903;28;20017;-70
2023/04/15 06:09:48;;;;;;;10.27;5.90;;;;;;;-142.75;100.00;77320.34;5012419;28;20417;-70
2023/04/15 06:12:14;;;;;;;11.10;5.27;;;;;;;-142.75;100.00;77310.50;5012336;28;20026;-70
2023/04/15 06:14:40;;;;;;;10.60;5.80;;;;;;;-142.75;100.00;77290.81;5010794;28;20018;-70
2023/04/15 06:17:05;;;;;;;10.13;5.23;;;;;;;-142.75;100.00;77282.94;5010927;28;20104;-70
2023/04/15 06:19:31;;;;;;;8.63;5.53;;;;;;;-142.75;100.00;77286.88;5012210;28;20044;-70
2023/04/15 06:21:57;;;;;;;8.67;5.43;;;;;;;-142.75;100.00;77261.28;5011090;28;20718;-69
2023/04/15 06:24:23;;;;;;;9.00;5.47;;;;;;;-142.75;100.00;77259.31;5012137;28;20430;-70
2023/04/15 06:26:48;;;;;;;11.20;5.77;;;;;;;-142.75;100.00;77288.84;5011999;28;20032;-70
2023/04/15 06:29:13;;;;;;;9.10;5.43;;;;;;;-142.75;100.00;77241.59;5012336;28;20030;-69
2023/04/15 06:31:39;;;;;;;9.10;5.73;;;;;;;-142.75;100.00;77249.47;5011238;28;20030;-70
2023/04/15 06:34:05;;;;;;;11.60;5.43;;;;;;;-142.75;100.00;77255.38;5012340;28;20025;-70
2023/04/15 06:36:31;;;;;;;8.93;4.93;;;;;;;-142.75;100.00;77259.31;5011955;28;20478;-70
2023/04/15 06:38:56;;;;;;;10.03;5.43;;;;;;;-142.75;100.00;77243.56;5012209;28;20030;-69
2023/04/15 06:41:22;;;;;;;11.80;5.77;;;;;;;-142.75;100.00;77265.22;5010855;28;20092;-67
2023/04/15 06:43:47;;;;;;;8.83;4.93;;;;;;;-142.75;100.00;77259.31;5012315;28;20034;-70
2023/04/15 06:46:12;;;;;;;10.63;5.57;;;;;;;-142.75;100.00;77271.13;5011635;28;20121;-70
2023/04/15 06:48:38;;;;;;;10.60;5.63;;;;;;;-142.75;100.00;77257.34;5011040;28;20085;-70
2023/04/15 06:51:04;;;;;;;12.77;5.60;;;;;;;-142.75;100.00;77227.81;5012600;28;20029;-70
2023/04/15 06:53:29;;;;;;;10.20;5.82;;;;;;;-142.75;100.00;77212.06;5012242;28;20101;-70
2023/04/15 06:55:54;;;;;;;10.90;5.60;;;;;;;-142.75;100.00;77204.19;5012462;28;20025;-70
2023/04/15 06:58:20;;;;;;;10.93;5.68;;;;;;;-142.75;100.00;77180.56;5011938;28;20021;-70
2023/04/15 07:00:46;;;;;;;8.32;5.32;;;;;;;-142.75;100.00;77145.13;5012385;28;20030;-71
2023/04/15 07:03:12;;;;;;;7.75;5.05;;;;;;;-142.75;100.00;77186.47;5010144;28;20496;-70
2023/04/15 07:05:38;;;;;;;8.70;5.65;;;;;;;-142.75;100.00;77156.94;5010727;28;20018;-70
2023/04/15 07:08:05;;;;;;;12.25;6.22;;;;;;;-142.75;100.00;77153.00;5011386;28;20022;-69
2023/04/15 07:10:31;;;;;;;9.85;5.78;;;;;;;-142.75;100.00;77125.44;5010637;28;20083;-70
2023/04/15 07:12:56;;;;;;;10.23;5.72;;;;;;;-142.75;100.00;77107.72;5010521;28;20030;-70
2023/04/15 07:15:22;;;;;;;9.68;5.57;;;;;;;-142.75;100.00;77078.19;5011886;28;20040;-70
2023/04/15 07:17:47;;;;;;;12.07;5.93;;;;;;;-142.75;100.00;77095.91;5010129;28;20167;-69
2023/04/15 07:20:13;;;;;;;10.73;6.05;;;;;;;-142.75;100.00;77097.88;5011768;28;20034;-70
2023/04/15 07:22:39;;;;;;;10.00;5.60;;;;;;;-142.75;100.00;77080.16;5011050;28;20048;-70
2023/04/15 07:25:05;;;;;;;8.45;5.75;;;;;;;-142.75;100.00;77086.06;5010545;28;20030;-70
2023/04/15 07:27:31;;;;;;;12.20;5.60;;;;;;;-142.75;100.00;77023.06;5011029;28;20032;-70
2023/04/15 07:29:56;;;;;;;9.85;5.35;;;;;;;-142.75;100.00;77078.19;5011493;28;20030;-70
2023/04/15 07:32:22;;;;;;;7.32;4.82;;;;;;;-142.75;100.00;77025.03;5011195;28;20032;-70
2023/04/15 07:34:47;;;;;;;10.32;5.22;;;;;;;-142.75;100.00;77009.28;5006925;28;20030;-70
2023/04/15 07:37:12;;;;;;;9.77;5.82;;;;;;;-142.75;100.00;76987.63;5003597;28;20061;-71
2023/04/15 07:39:38;;;;;;;11.13;5.20;;;;;;;-142.75;100.00;77009.28;5011259;28;20026;-70
2023/04/15 07:42:03;;;;;;;8.00;4.95;;;;;;;-142.75;100.00;77034.88;5009931;28;20081;-71
2023/04/15 07:44:29;;;;;;;10.10;5.47;;;;;;;-142.75;100.00;77038.81;5010127;28;20022;-70
2023/04/15 07:46:58;;;;;;;9.73;5.35;;;;;;;-142.75;100.00;77007.31;5010815;28;20057;-70
2023/04/15 07:49:23;;;;;;;8.63;4.85;;;;;;;-142.75;100.00;76967.94;5011582;28;20069;-70
2023/04/15 07:51:48;;;;;;;11.00;4.78;;;;;;;-142.75;100.00;77025.03;5004892;28;20494;-70
2023/04/15 07:54:14;;;;;;;8.15;5.38;;;;;;;-142.75;100.00;76995.50;5009294;28;20521;-71
2023/04/15 07:56:40;;;;;;;8.77;5.43;;;;;;;-142.75;100.00;77013.22;5008351;28;20056;-71
2023/04/15 07:59:05;;;;;;;11.07;5.40;;;;;;;-142.75;100.00;76991.56;5008278;28;20030;-70
2023/04/15 08:01:31;;;;;;;7.45;5.22;;;;;;;-142.75;100.00;77005.34;5009913;28;20033;-69
2023/04/15 08:04:00;;;;;;;8.07;5.00;;;;;;;-142.75;100.00;76985.66;5009841;28;20511;-69
2023/04/15 08:06:26;;;;;;;10.35;6.15;;;;;;;-142.75;100.00;76962.03;5009393;28;20464;-68
2023/04/15 08:08:53;;;;;;;11.82;6.00;;;;;;;-142.75;100.00;76948.25;5009375;28;20117;-69
2023/04/15 08:11:18;;;;;;;8.48;4.95;;;;;;;-142.75;100.00;76975.81;5010974;28;20025;-67
2023/04/15 08:13:43;;;;;;;8.27;4.68;;;;;;;-142.75;100.00;76873.44;5009866;28;20409;-67
2023/04/15 08:16:31;;;;;;;9.48;5.07;;;;;;;-142.75;100.00;76838.00;5009426;28;20486;-70
2023/04/15 08:18:56;;;;;;;7.30;4.72;;;;;;;-142.75;100.00;76839.97;5010605;28;20040;-70
2023/04/15 08:21:22;;;;;;;9.48;4.82;;;;;;;-142.75;99.49;76814.38;5010873;28;20034;-69
2023/04/15 08:23:51;;;;;;;7.38;4.90;;;;;;;-142.75;95.09;76782.91;5014227;28;20056;-69
2023/04/15 08:26:17;;;;;;;6.55;4.30;;;;;;;-142.75;97.36;76708.09;5012644;28;20026;-69
2023/04/15 08:28:44;;;;;;;7.30;4.47;;;;;;;-142.75;94.54;76694.31;5013978;28;20026;-70
2023/04/15 08:31:09;;;;;;;10.60;4.47;;;;;;;-142.75;96.86;76729.75;5014306;28;20132;-69
2023/04/15 08:33:35;;;;;;;7.88;4.78;;;;;;;-142.75;94.67;76745.50;5014078;28;20101;-70
2023/04/15 08:36:01;;;;;;;7.05;4.53;;;;;;;-142.75;96.82;76832.09;5014214;28;20488;-69
2023/04/15 08:38:26;;;;;;;9.52;5.03;;;;;;;-142.75;94.04;76759.28;5013993;28;20093;-70
2023/04/15 08:40:51;;;;;;;9.38;5.45;;;;;;;-142.75;93.22;76737.63;5014145;28;20495;-69
2023/04/15 08:43:25;;;;;;;8.43;5.43;;;;;;;-142.75;93.26;76826.19;5012363;28;20025;-70
2023/04/15 08:45:51;;;;;;;8.43;4.75;;;;;;;-142.75;93.13;76818.31;5014242;28;20485;-70
2023/04/15 08:48:17;;;;;;;9.65;5.25;;;;;;;-142.75;94.92;76834.06;5013901;28;20164;-70
2023/04/15 08:50:44;;;;;;;10.18;5.50;;;;;;;-142.75;94.98;76767.16;5013785;28;20025;-70
2023/04/15 08:53:10;;;;;;;8.73;5.22;;;;;;;-142.75;93.28;76731.72;5013934;28;20025;-69
2023/04/15 08:55:43;;;;;;;8.30;4.88;;;;;;;-142.75;89.15;76741.56;5014011;28;20022;-69
2023/04/15 08:58:10;;;;;;;8.45;5.22;;;;;;;-142.75;88.74;76698.25;5013953;28;20533;-70
2023/04/15 09:00:35;;;;;;;9.13;4.32;;;;;;;-142.75;86.86;76672.66;5014399;28;20052;-69
2023/04/15 09:03:01;;;;;;;8.48;4.25;;;;;;;-142.75;90.46;76786.84;5013864;28;20549;-70
2023/04/15 09:05:26;;;;;;;8.88;3.72;;;;;;;-142.75;89.19;76747.47;5012705;28;20036;-69
2023/04/15 09:07:52;;;;;;;7.57;4.53;;;;;;;-142.75;88.71;76715.97;5013705;28;20056;-70
2023/04/15 09:10:17;;;;;;;9.55;3.90;;;;;;;-142.75;91.54;76731.72;5013887;28;20551;-69
2023/04/15 09:12:42;;;;;;;7.22;4.13;;;;;;;-142.75;89.08;76737.63;5013481;28;20113;-69
2023/04/15 09:15:11;;;;;;;9.48;3.88;;;;;;;-142.75;91.13;76727.78;5012242;28;20030;-69
2023/04/15 09:17:42;;;;;;;8.15;3.78;;;;;;;-142.75;89.38;76810.44;5011837;28;20026;-70
2023/04/15 09:20:13;;;;;;;8.43;4.00;;;;;;;-142.75;87.66;76814.38;5013495;28;20041;-70
2023/04/15 09:22:40;;;;;;;7.63;3.78;;;;;;;-142.75;88.51;76806.50;5025795;28;20053;-71
2023/04/15 09:25:27;;;;;;;9.15;4.32;;;;;;;-142.75;88.64;76717.94;5011996;28;20026;-69
2023/04/15 09:27:53;;;;;;;;;;;;;;;-142.75;83.37;76647.06;5012171;28;20029;-70
2023/04/15 09:30:18;;;;;;;6.55;3.50;;;;;;;-142.75;82.57;76688.41;5013545;28;19923;-70
2023/04/15 09:32:48;;;;;;;5.18;3.03;;;;;;;-142.75;81.39;76694.31;5013227;28;20108;-70
2023/04/15 09:35:14;;;;;;;10.43;3.75;;;;;;;-142.75;84.42;76725.81;5011424;28;20026;-70
2023/04/15 09:37:39;;;;;;;4.80;2.38;;;;;;;-142.75;80.95;76672.66;5012076;28;20669;-69
2023/04/15 09:40:05;;;;;;;3.83;2.05;;;;;;;-142.75;78.26;76623.44;5013345;28;20014;-70
2023/04/15 09:42:31;;;;;;;5.88;2.53;;;;;;;-142.75;79.50;76645.09;5011630;28;20014;-70
2023/04/15 09:45:08;;;;;;;5.05;2.95;;;;;;;-142.75;78.42;76645.09;5012901;28;20119;-69
2023/04/15 09:47:33;;;;;;;4.78;2.58;;;;;;;-142.75;80.19;76664.78;5012648;28;20068;-70
2023/04/15 09:50:00;;;;;;;7.10;2.47;;;;;;;-142.75;79.74;76652.97;5012812;28;20053;-70
2023/04/15 09:52:26;;;;;;;5.97;2.38;;;;;;;-142.75;78.12;76672.66;5012724;28;20025;-70
2023/04/15 09:54:54;;;;;;;5.05;2.47;;;;;;;-142.75;76.70;76643.13;5012798;28;20624;-70
2023/04/15 09:57:20;;;;;;;4.75;2.35;;;;;;;-142.75;76.05;76741.56;5012656;28;20057;-70
2023/04/15 09:59:46;;;;;;;5.13;2.90;;;;;;;-142.75;77.81;76700.22;5011087;28;20489;-70
2023/04/15 10:02:12;;;;;;;7.05;2.60;;;;;;;-142.75;77.69;76737.63;5011645;28;20018;-70
2023/04/15 10:04:40;;;;;;;6.00;2.42;;;;;;;-142.75;79.90;76654.94;5011148;28;20021;-71
2023/04/15 10:07:07;;;;;;;6.32;3.03;;;;;;;-142.75;79.02;76700.22;5012101;28;20010;-70
2023/04/15 10:09:34;;;;;;;5.82;2.85;;;;;;;-142.75;79.75;76727.78;5012446;28;20029;-70
2023/04/15 10:12:03;;;;;;;3.90;2.50;;;;;;;-142.75;78.93;76741.56;5012473;28;20026;-70
2023/04/15 10:14:32;;;;;;;7.13;3.03;;;;;;;-142.75;80.02;76662.81;5012456;28;20124;-70
2023/04/15 10:17:00;;;;;;;4.80;1.90;;;;;;;-142.75;77.73;76586.03;5010834;28;20033;-70
2023/04/15 10:19:26;;;;;;;5.38;1.90;;;;;;;-142.75;76.21;76540.75;5012341;28;20421;-70
2023/04/15 10:21:53;;;;;;;3.03;1.40;;;;;;;-142.75;73.92;76615.56;5012241;28;20018;-71
2023/04/15 10:24:19;;;;;;;5.65;1.90;;;;;;;-142.75;75.28;76704.16;5009607;28;20029;-70
2023/04/15 10:26:45;;;;;;;4.75;1.65;;;;;;;-142.75;75.76;76729.75;5012134;28;20497;-70
2023/04/15 10:29:11;;;;;;;4.45;1.55;;;;;;;-142.75;80.06;76641.16;5012219;28;20018;-70
2023/04/15 10:31:37;;;;;;;5.80;1.55;;;;;;;-142.75;76.18;76558.47;5012031;28;20420;-70
2023/04/15 10:34:05;;;;;;;4.78;1.20;;;;;;;-142.75;71.87;76690.38;5011777;28;20030;-71
2023/04/15 10:36:32;;;;;;;3.50;1.40;;;;;;;-142.75;75.79;76684.47;5011923;28;20477;-70
2023/04/15 10:38:57;;;;;;;4.47;1.73;;;;;;;-142.75;77.53;76680.53;5010101;28;20518;-71
2023/04/15 10:41:29;;;;;;;3.30;1.48;;;;;;;-142.75;78.10;76572.25;5011904;28;20022;-70
2023/04/15 10:44:02;;;;;;;3.78;1.50;;;;;;;-142.75;77.24;76552.56;5011623;28;20022;-71
2023/04/15 10:46:36;;;;;;;4.50;1.90;;;;;;;-142.75;74.78;76495.50;5010479;28;20022;-70
2023/04/15 10:49:06;;;;;;;4.63;1.55;;;;;;;-142.75;74.78;76536.84;5011898;28;20542;-71
2023/04/15 10:51:31;;;;;;;4.75;2.13;;;;;;;-142.75;75.84;76491.56;5012253;28;20022;-71
2023/04/15 10:53:59;;;;;;;3.08;1.92;;;;;;;-142.75;76.42;76446.28;5011991;28;20113;-71
2023/04/15 10:56:26;;;;;;;5.32;2.28;;;;;;;-142.75;75.76;76456.13;5012560;28;20064;-71
2023/04/15 10:58:52;;;;;;;4.28;1.85;;;;;;;-142.75;74.59;76397.06;5012185;28;20057;-71
2023/04/15 11:01:21;;;;;;;4.95;1.55;;;;;;;-142.75;73.13;76391.16;5012636;28;20053;-70
2023/04/15 11:03:47;;;;;;;2.38;1.30;;;;;;;-142.75;73.16;76424.63;5012543;28;20028;-71
2023/04/15 11:06:12;;;;;;;4.85;1.52;;;;;;;-142.75;73.91;76464.00;5011309;28;20022;-71